<?xml version="1.0" encoding="utf-8"?>
<gpx xmlns:xsi="http://www.w3.org/2001/XMLSchema-instance" xmlns:xsd="http://www.w3.org/2001/XMLSchema" version="1.1" creator="Shapelink.com" xmlns="http://www.topografix.com/GPX/1/1" xmlns:gpxtpx="http://www.garmin.com/xmlschemas/TrackPointExtension/v1">
  <metadata>
    <name>Längdskidåkning - Klassisk 10.01 km, 2011-01-19</name>
    <desc></desc>
    <author><name>Alexander Engvall</name></author> 
    <time>2011-01-19T19:39:00Z</time>
  </metadata>
  <trk>
    <name>Längdskidåkning - Klassisk 10.01 km, 2011-01-19</name>
    <trkseg>
      <trkpt lat="59.5926268" lon="17.517299">
        <ele>48.2034</ele>
        <time>2011-01-19T19:39:00Z</time>
      </trkpt>
      <trkpt lat="59.5926335" lon="17.517276">
        <ele>48.2034</ele>
        <time>2011-01-19T19:39:01Z</time>
      </trkpt>
      <trkpt lat="59.5926658" lon="17.5170903">
        <ele>49.6453</ele>
        <time>2011-01-19T19:39:05Z</time>
      </trkpt>
      <trkpt lat="59.5926859" lon="17.5169194">
        <ele>50.126</ele>
        <time>2011-01-19T19:39:07Z</time>
      </trkpt>
      <trkpt lat="59.5927827" lon="17.5163546">
        <ele>50.126</ele>
        <time>2011-01-19T19:39:12Z</time>
      </trkpt>
      <trkpt lat="59.5929074" lon="17.5159464">
        <ele>49.6453</ele>
        <time>2011-01-19T19:39:16Z</time>
      </trkpt>
      <trkpt lat="59.5930974" lon="17.5153818">
        <ele>47.2418</ele>
        <time>2011-01-19T19:39:21Z</time>
      </trkpt>
      <trkpt lat="59.5932381" lon="17.5150419">
        <ele>44.358</ele>
        <time>2011-01-19T19:39:24Z</time>
      </trkpt>
      <trkpt lat="59.5934268" lon="17.5146575">
        <ele>41.474</ele>
        <time>2011-01-19T19:39:28Z</time>
      </trkpt>
      <trkpt lat="59.5935263" lon="17.5145546">
        <ele>40.5128</ele>
        <time>2011-01-19T19:39:30Z</time>
      </trkpt>
      <trkpt lat="59.5937072" lon="17.5144629">
        <ele>39.0707</ele>
        <time>2011-01-19T19:39:34Z</time>
      </trkpt>
      <trkpt lat="59.5938718" lon="17.5145456">
        <ele>36.6675</ele>
        <time>2011-01-19T19:39:39Z</time>
      </trkpt>
      <trkpt lat="59.5939754" lon="17.51471">
        <ele>33.7834</ele>
        <time>2011-01-19T19:39:44Z</time>
      </trkpt>
      <trkpt lat="59.5940684" lon="17.5148988">
        <ele>33.3029</ele>
        <time>2011-01-19T19:39:49Z</time>
      </trkpt>
      <trkpt lat="59.5941411" lon="17.5150701">
        <ele>34.2642</ele>
        <time>2011-01-19T19:39:54Z</time>
      </trkpt>
      <trkpt lat="59.5942101" lon="17.5151749">
        <ele>33.7834</ele>
        <time>2011-01-19T19:39:58Z</time>
      </trkpt>
      <trkpt lat="59.5943107" lon="17.5152506">
        <ele>32.8223</ele>
        <time>2011-01-19T19:40:02Z</time>
      </trkpt>
      <trkpt lat="59.594467" lon="17.5153777">
        <ele>32.8223</ele>
        <time>2011-01-19T19:40:08Z</time>
      </trkpt>
      <trkpt lat="59.5946624" lon="17.5155319">
        <ele>34.2642</ele>
        <time>2011-01-19T19:40:14Z</time>
      </trkpt>
      <trkpt lat="59.5948015" lon="17.5155858">
        <ele>35.2255</ele>
        <time>2011-01-19T19:40:18Z</time>
      </trkpt>
      <trkpt lat="59.5949724" lon="17.5156438">
        <ele>36.6675</ele>
        <time>2011-01-19T19:40:23Z</time>
      </trkpt>
      <trkpt lat="59.5951143" lon="17.5156461">
        <ele>37.6287</ele>
        <time>2011-01-19T19:40:27Z</time>
      </trkpt>
      <trkpt lat="59.595265" lon="17.5155833">
        <ele>41.474</ele>
        <time>2011-01-19T19:40:32Z</time>
      </trkpt>
      <trkpt lat="59.5953491" lon="17.5154777">
        <ele>45.3192</ele>
        <time>2011-01-19T19:40:36Z</time>
      </trkpt>
      <trkpt lat="59.5954456" lon="17.5152912">
        <ele>48.2034</ele>
        <time>2011-01-19T19:40:41Z</time>
      </trkpt>
      <trkpt lat="59.5955377" lon="17.5150506">
        <ele>49.1646</ele>
        <time>2011-01-19T19:40:45Z</time>
      </trkpt>
      <trkpt lat="59.5956097" lon="17.5147768">
        <ele>49.6453</ele>
        <time>2011-01-19T19:40:49Z</time>
      </trkpt>
      <trkpt lat="59.5956807" lon="17.5145428">
        <ele>49.1646</ele>
        <time>2011-01-19T19:40:52Z</time>
      </trkpt>
      <trkpt lat="59.5957108" lon="17.5143204">
        <ele>49.1646</ele>
        <time>2011-01-19T19:40:55Z</time>
      </trkpt>
      <trkpt lat="59.5957376" lon="17.5137972">
        <ele>46.7612</ele>
        <time>2011-01-19T19:41:01Z</time>
      </trkpt>
      <trkpt lat="59.5957563" lon="17.5134173">
        <ele>43.8773</ele>
        <time>2011-01-19T19:41:04Z</time>
      </trkpt>
      <trkpt lat="59.5958849" lon="17.5128881">
        <ele>41.474</ele>
        <time>2011-01-19T19:41:08Z</time>
      </trkpt>
      <trkpt lat="59.5960692" lon="17.512684">
        <ele>39.0707</ele>
        <time>2011-01-19T19:41:11Z</time>
      </trkpt>
      <trkpt lat="59.5963182" lon="17.5125271">
        <ele>34.7449</ele>
        <time>2011-01-19T19:41:15Z</time>
      </trkpt>
      <trkpt lat="59.5965944" lon="17.5124804">
        <ele>30.8995</ele>
        <time>2011-01-19T19:41:20Z</time>
      </trkpt>
      <trkpt lat="59.5967478" lon="17.51247">
        <ele>29.4575</ele>
        <time>2011-01-19T19:41:23Z</time>
      </trkpt>
      <trkpt lat="59.5969663" lon="17.5124079">
        <ele>26.0929</ele>
        <time>2011-01-19T19:41:28Z</time>
      </trkpt>
      <trkpt lat="59.5971325" lon="17.5123331">
        <ele>28.9769</ele>
        <time>2011-01-19T19:41:32Z</time>
      </trkpt>
      <trkpt lat="59.5972617" lon="17.5122656">
        <ele>29.4575</ele>
        <time>2011-01-19T19:41:35Z</time>
      </trkpt>
      <trkpt lat="59.5974293" lon="17.5122034">
        <ele>30.8995</ele>
        <time>2011-01-19T19:41:39Z</time>
      </trkpt>
      <trkpt lat="59.5976306" lon="17.5120836">
        <ele>30.8995</ele>
        <time>2011-01-19T19:41:44Z</time>
      </trkpt>
      <trkpt lat="59.5977106" lon="17.5120267">
        <ele>30.4188</ele>
        <time>2011-01-19T19:41:46Z</time>
      </trkpt>
      <trkpt lat="59.5979701" lon="17.5117572">
        <ele>33.3029</ele>
        <time>2011-01-19T19:41:52Z</time>
      </trkpt>
      <trkpt lat="59.598198" lon="17.5114046">
        <ele>35.7061</ele>
        <time>2011-01-19T19:41:57Z</time>
      </trkpt>
      <trkpt lat="59.5983368" lon="17.5112171">
        <ele>36.1868</ele>
        <time>2011-01-19T19:42:00Z</time>
      </trkpt>
      <trkpt lat="59.5986162" lon="17.5110222">
        <ele>36.1868</ele>
        <time>2011-01-19T19:42:05Z</time>
      </trkpt>
      <trkpt lat="59.598716" lon="17.5109754">
        <ele>36.6675</ele>
        <time>2011-01-19T19:42:07Z</time>
      </trkpt>
      <trkpt lat="59.5988623" lon="17.5108654">
        <ele>38.1094</ele>
        <time>2011-01-19T19:42:10Z</time>
      </trkpt>
      <trkpt lat="59.59917" lon="17.510791">
        <ele>36.6675</ele>
        <time>2011-01-19T19:42:16Z</time>
      </trkpt>
      <trkpt lat="59.5992642" lon="17.5108131">
        <ele>36.1868</ele>
        <time>2011-01-19T19:42:18Z</time>
      </trkpt>
      <trkpt lat="59.5994264" lon="17.511019">
        <ele>34.7449</ele>
        <time>2011-01-19T19:42:22Z</time>
      </trkpt>
      <trkpt lat="59.5994605" lon="17.5110839">
        <ele>34.7449</ele>
        <time>2011-01-19T19:42:23Z</time>
      </trkpt>
      <trkpt lat="59.5995286" lon="17.5113813">
        <ele>31.8607</ele>
        <time>2011-01-19T19:42:27Z</time>
      </trkpt>
      <trkpt lat="59.5995651" lon="17.511807">
        <ele>31.8607</ele>
        <time>2011-01-19T19:42:33Z</time>
      </trkpt>
      <trkpt lat="59.5995031" lon="17.5120568">
        <ele>31.3801</ele>
        <time>2011-01-19T19:42:37Z</time>
      </trkpt>
      <trkpt lat="59.5994817" lon="17.5121001">
        <ele>31.8607</ele>
        <time>2011-01-19T19:42:38Z</time>
      </trkpt>
      <trkpt lat="59.5993077" lon="17.5123245">
        <ele>29.9381</ele>
        <time>2011-01-19T19:42:44Z</time>
      </trkpt>
      <trkpt lat="59.5992432" lon="17.5125118">
        <ele>28.4962</ele>
        <time>2011-01-19T19:42:48Z</time>
      </trkpt>
      <trkpt lat="59.599248" lon="17.512814">
        <ele>26.0929</ele>
        <time>2011-01-19T19:42:53Z</time>
      </trkpt>
      <trkpt lat="59.599213" lon="17.5131186">
        <ele>23.209</ele>
        <time>2011-01-19T19:42:57Z</time>
      </trkpt>
      <trkpt lat="59.5992027" lon="17.5131875">
        <ele>23.209</ele>
        <time>2011-01-19T19:42:58Z</time>
      </trkpt>
      <trkpt lat="59.5991193" lon="17.5134553">
        <ele>21.2864</ele>
        <time>2011-01-19T19:43:02Z</time>
      </trkpt>
      <trkpt lat="59.5990457" lon="17.5135821">
        <ele>20.325</ele>
        <time>2011-01-19T19:43:05Z</time>
      </trkpt>
      <trkpt lat="59.5989861" lon="17.5137065">
        <ele>19.8444</ele>
        <time>2011-01-19T19:43:08Z</time>
      </trkpt>
      <trkpt lat="59.5988222" lon="17.5138164">
        <ele>20.8057</ele>
        <time>2011-01-19T19:43:14Z</time>
      </trkpt>
      <trkpt lat="59.5987678" lon="17.5138058">
        <ele>21.767</ele>
        <time>2011-01-19T19:43:16Z</time>
      </trkpt>
      <trkpt lat="59.598577" lon="17.5137992">
        <ele>23.6896</ele>
        <time>2011-01-19T19:43:23Z</time>
      </trkpt>
      <trkpt lat="59.5984163" lon="17.5138058">
        <ele>27.0543</ele>
        <time>2011-01-19T19:43:28Z</time>
      </trkpt>
      <trkpt lat="59.5983127" lon="17.5138255">
        <ele>28.0155</ele>
        <time>2011-01-19T19:43:32Z</time>
      </trkpt>
      <trkpt lat="59.5981945" lon="17.5138558">
        <ele>32.3416</ele>
        <time>2011-01-19T19:43:37Z</time>
      </trkpt>
      <trkpt lat="59.5980479" lon="17.5139345">
        <ele>32.8223</ele>
        <time>2011-01-19T19:43:43Z</time>
      </trkpt>
      <trkpt lat="59.5979355" lon="17.5141019">
        <ele>34.2642</ele>
        <time>2011-01-19T19:43:48Z</time>
      </trkpt>
      <trkpt lat="59.597853" lon="17.5142755">
        <ele>33.7834</ele>
        <time>2011-01-19T19:43:52Z</time>
      </trkpt>
      <trkpt lat="59.5977165" lon="17.5144386">
        <ele>34.2642</ele>
        <time>2011-01-19T19:43:57Z</time>
      </trkpt>
      <trkpt lat="59.5975904" lon="17.5145416">
        <ele>34.7449</ele>
        <time>2011-01-19T19:44:01Z</time>
      </trkpt>
      <trkpt lat="59.5974221" lon="17.514637">
        <ele>36.1868</ele>
        <time>2011-01-19T19:44:06Z</time>
      </trkpt>
      <trkpt lat="59.5972756" lon="17.5146715">
        <ele>36.6675</ele>
        <time>2011-01-19T19:44:11Z</time>
      </trkpt>
      <trkpt lat="59.5971152" lon="17.5147222">
        <ele>38.5901</ele>
        <time>2011-01-19T19:44:16Z</time>
      </trkpt>
      <trkpt lat="59.5969975" lon="17.5148062">
        <ele>38.5901</ele>
        <time>2011-01-19T19:44:20Z</time>
      </trkpt>
      <trkpt lat="59.5968559" lon="17.5149783">
        <ele>39.0707</ele>
        <time>2011-01-19T19:44:25Z</time>
      </trkpt>
      <trkpt lat="59.5967732" lon="17.5151055">
        <ele>40.0321</ele>
        <time>2011-01-19T19:44:29Z</time>
      </trkpt>
      <trkpt lat="59.5966282" lon="17.5152109">
        <ele>40.9934</ele>
        <time>2011-01-19T19:44:35Z</time>
      </trkpt>
      <trkpt lat="59.5965195" lon="17.5152943">
        <ele>41.474</ele>
        <time>2011-01-19T19:44:40Z</time>
      </trkpt>
      <trkpt lat="59.5964275" lon="17.5153845">
        <ele>41.9547</ele>
        <time>2011-01-19T19:44:44Z</time>
      </trkpt>
      <trkpt lat="59.5962913" lon="17.5155201">
        <ele>41.9547</ele>
        <time>2011-01-19T19:44:49Z</time>
      </trkpt>
      <trkpt lat="59.5961478" lon="17.5156756">
        <ele>42.4354</ele>
        <time>2011-01-19T19:44:55Z</time>
      </trkpt>
      <trkpt lat="59.5960235" lon="17.5158138">
        <ele>42.916</ele>
        <time>2011-01-19T19:44:59Z</time>
      </trkpt>
      <trkpt lat="59.5959107" lon="17.5159957">
        <ele>43.3966</ele>
        <time>2011-01-19T19:45:04Z</time>
      </trkpt>
      <trkpt lat="59.5958481" lon="17.5163716">
        <ele>45.7999</ele>
        <time>2011-01-19T19:45:11Z</time>
      </trkpt>
      <trkpt lat="59.595817" lon="17.5166484">
        <ele>45.7999</ele>
        <time>2011-01-19T19:45:15Z</time>
      </trkpt>
      <trkpt lat="59.5957489" lon="17.5169566">
        <ele>44.8386</ele>
        <time>2011-01-19T19:45:19Z</time>
      </trkpt>
      <trkpt lat="59.5956957" lon="17.5171155">
        <ele>43.8773</ele>
        <time>2011-01-19T19:45:21Z</time>
      </trkpt>
      <trkpt lat="59.5954598" lon="17.5174533">
        <ele>42.4354</ele>
        <time>2011-01-19T19:45:25Z</time>
      </trkpt>
      <trkpt lat="59.5953751" lon="17.5174953">
        <ele>42.916</ele>
        <time>2011-01-19T19:45:26Z</time>
      </trkpt>
      <trkpt lat="59.5947581" lon="17.5176894">
        <ele>42.916</ele>
        <time>2011-01-19T19:45:34Z</time>
      </trkpt>
      <trkpt lat="59.5945141" lon="17.5178225">
        <ele>40.9934</ele>
        <time>2011-01-19T19:45:38Z</time>
      </trkpt>
      <trkpt lat="59.5944131" lon="17.517887">
        <ele>39.0707</ele>
        <time>2011-01-19T19:45:40Z</time>
      </trkpt>
      <trkpt lat="59.5942462" lon="17.5180599">
        <ele>35.7061</ele>
        <time>2011-01-19T19:45:44Z</time>
      </trkpt>
      <trkpt lat="59.5940366" lon="17.5181666">
        <ele>30.8995</ele>
        <time>2011-01-19T19:45:49Z</time>
      </trkpt>
      <trkpt lat="59.5938716" lon="17.5182407">
        <ele>29.9381</ele>
        <time>2011-01-19T19:45:53Z</time>
      </trkpt>
      <trkpt lat="59.593725" lon="17.5183486">
        <ele>28.4962</ele>
        <time>2011-01-19T19:45:56Z</time>
      </trkpt>
      <trkpt lat="59.5936329" lon="17.5184061">
        <ele>28.4962</ele>
        <time>2011-01-19T19:45:58Z</time>
      </trkpt>
      <trkpt lat="59.5933605" lon="17.5186518">
        <ele>27.0543</ele>
        <time>2011-01-19T19:46:04Z</time>
      </trkpt>
      <trkpt lat="59.5931175" lon="17.5187015">
        <ele>25.1317</ele>
        <time>2011-01-19T19:46:09Z</time>
      </trkpt>
      <trkpt lat="59.5929788" lon="17.5185805">
        <ele>25.1317</ele>
        <time>2011-01-19T19:46:12Z</time>
      </trkpt>
      <trkpt lat="59.5929109" lon="17.5184749">
        <ele>26.0929</ele>
        <time>2011-01-19T19:46:14Z</time>
      </trkpt>
      <trkpt lat="59.5927193" lon="17.5181826">
        <ele>29.4575</ele>
        <time>2011-01-19T19:46:19Z</time>
      </trkpt>
      <trkpt lat="59.5925985" lon="17.5179221">
        <ele>31.8607</ele>
        <time>2011-01-19T19:46:23Z</time>
      </trkpt>
      <trkpt lat="59.5925835" lon="17.5178533">
        <ele>32.3416</ele>
        <time>2011-01-19T19:46:24Z</time>
      </trkpt>
      <trkpt lat="59.592597" lon="17.5176402">
        <ele>35.2255</ele>
        <time>2011-01-19T19:46:27Z</time>
      </trkpt>
      <trkpt lat="59.5926083" lon="17.5175773">
        <ele>35.7061</ele>
        <time>2011-01-19T19:46:28Z</time>
      </trkpt>
      <trkpt lat="59.5926451" lon="17.5171788">
        <ele>37.1481</ele>
        <time>2011-01-19T19:46:34Z</time>
      </trkpt>
      <trkpt lat="59.5926501" lon="17.5171109">
        <ele>37.6287</ele>
        <time>2011-01-19T19:46:35Z</time>
      </trkpt>
      <trkpt lat="59.5926777" lon="17.5167464">
        <ele>37.6287</ele>
        <time>2011-01-19T19:46:39Z</time>
      </trkpt>
      <trkpt lat="59.5927736" lon="17.5163438">
        <ele>36.6675</ele>
        <time>2011-01-19T19:46:43Z</time>
      </trkpt>
      <trkpt lat="59.5930298" lon="17.5155829">
        <ele>36.1868</ele>
        <time>2011-01-19T19:46:50Z</time>
      </trkpt>
      <trkpt lat="59.5932496" lon="17.5150366">
        <ele>34.7449</ele>
        <time>2011-01-19T19:46:55Z</time>
      </trkpt>
      <trkpt lat="59.5934598" lon="17.5146939">
        <ele>35.2255</ele>
        <time>2011-01-19T19:46:59Z</time>
      </trkpt>
      <trkpt lat="59.5935631" lon="17.5145642">
        <ele>35.2255</ele>
        <time>2011-01-19T19:47:01Z</time>
      </trkpt>
      <trkpt lat="59.5937055" lon="17.5144516">
        <ele>35.7061</ele>
        <time>2011-01-19T19:47:04Z</time>
      </trkpt>
      <trkpt lat="59.5938861" lon="17.514511">
        <ele>34.7449</ele>
        <time>2011-01-19T19:47:09Z</time>
      </trkpt>
      <trkpt lat="59.5939698" lon="17.5146503">
        <ele>35.7061</ele>
        <time>2011-01-19T19:47:13Z</time>
      </trkpt>
      <trkpt lat="59.5940749" lon="17.5148871">
        <ele>37.6287</ele>
        <time>2011-01-19T19:47:19Z</time>
      </trkpt>
      <trkpt lat="59.5942014" lon="17.515114">
        <ele>40.9934</ele>
        <time>2011-01-19T19:47:25Z</time>
      </trkpt>
      <trkpt lat="59.5943401" lon="17.5152247">
        <ele>41.9547</ele>
        <time>2011-01-19T19:47:30Z</time>
      </trkpt>
      <trkpt lat="59.5944591" lon="17.5153335">
        <ele>42.4354</ele>
        <time>2011-01-19T19:47:34Z</time>
      </trkpt>
      <trkpt lat="59.5946058" lon="17.5154391">
        <ele>42.916</ele>
        <time>2011-01-19T19:47:39Z</time>
      </trkpt>
      <trkpt lat="59.5947084" lon="17.5154891">
        <ele>42.916</ele>
        <time>2011-01-19T19:47:42Z</time>
      </trkpt>
      <trkpt lat="59.5948845" lon="17.5155304">
        <ele>42.4354</ele>
        <time>2011-01-19T19:47:47Z</time>
      </trkpt>
      <trkpt lat="59.5950328" lon="17.515543">
        <ele>42.4354</ele>
        <time>2011-01-19T19:47:52Z</time>
      </trkpt>
      <trkpt lat="59.5951449" lon="17.5155548">
        <ele>40.9934</ele>
        <time>2011-01-19T19:47:56Z</time>
      </trkpt>
      <trkpt lat="59.5953111" lon="17.5155091">
        <ele>42.4354</ele>
        <time>2011-01-19T19:48:02Z</time>
      </trkpt>
      <trkpt lat="59.5954102" lon="17.5153788">
        <ele>45.3192</ele>
        <time>2011-01-19T19:48:07Z</time>
      </trkpt>
      <trkpt lat="59.5954699" lon="17.5152501">
        <ele>45.7999</ele>
        <time>2011-01-19T19:48:10Z</time>
      </trkpt>
      <trkpt lat="59.5955792" lon="17.514899">
        <ele>45.7999</ele>
        <time>2011-01-19T19:48:16Z</time>
      </trkpt>
      <trkpt lat="59.5956605" lon="17.5145401">
        <ele>45.7999</ele>
        <time>2011-01-19T19:48:21Z</time>
      </trkpt>
      <trkpt lat="59.5957004" lon="17.5142321">
        <ele>45.3192</ele>
        <time>2011-01-19T19:48:25Z</time>
      </trkpt>
      <trkpt lat="59.5957195" lon="17.5137865">
        <ele>42.916</ele>
        <time>2011-01-19T19:48:30Z</time>
      </trkpt>
      <trkpt lat="59.5957371" lon="17.5133933">
        <ele>41.9547</ele>
        <time>2011-01-19T19:48:33Z</time>
      </trkpt>
      <trkpt lat="59.5958661" lon="17.5128663">
        <ele>40.0321</ele>
        <time>2011-01-19T19:48:37Z</time>
      </trkpt>
      <trkpt lat="59.5959303" lon="17.5127923">
        <ele>40.0321</ele>
        <time>2011-01-19T19:48:38Z</time>
      </trkpt>
      <trkpt lat="59.5961317" lon="17.512643">
        <ele>39.5513</ele>
        <time>2011-01-19T19:48:41Z</time>
      </trkpt>
      <trkpt lat="59.5963412" lon="17.5125452">
        <ele>40.0321</ele>
        <time>2011-01-19T19:48:44Z</time>
      </trkpt>
      <trkpt lat="59.5965737" lon="17.5124871">
        <ele>40.0321</ele>
        <time>2011-01-19T19:48:48Z</time>
      </trkpt>
      <trkpt lat="59.5967208" lon="17.5125017">
        <ele>40.9934</ele>
        <time>2011-01-19T19:48:51Z</time>
      </trkpt>
      <trkpt lat="59.5969123" lon="17.5124209">
        <ele>41.474</ele>
        <time>2011-01-19T19:48:55Z</time>
      </trkpt>
      <trkpt lat="59.5972047" lon="17.5122744">
        <ele>41.474</ele>
        <time>2011-01-19T19:49:01Z</time>
      </trkpt>
      <trkpt lat="59.5973449" lon="17.5122028">
        <ele>43.3966</ele>
        <time>2011-01-19T19:49:04Z</time>
      </trkpt>
      <trkpt lat="59.5974859" lon="17.5121611">
        <ele>43.3966</ele>
        <time>2011-01-19T19:49:07Z</time>
      </trkpt>
      <trkpt lat="59.5976765" lon="17.5120925">
        <ele>41.9547</ele>
        <time>2011-01-19T19:49:11Z</time>
      </trkpt>
      <trkpt lat="59.5980076" lon="17.5118314">
        <ele>41.9547</ele>
        <time>2011-01-19T19:49:18Z</time>
      </trkpt>
      <trkpt lat="59.5983117" lon="17.5113501">
        <ele>40.9934</ele>
        <time>2011-01-19T19:49:25Z</time>
      </trkpt>
      <trkpt lat="59.5983627" lon="17.5112881">
        <ele>41.474</ele>
        <time>2011-01-19T19:49:26Z</time>
      </trkpt>
      <trkpt lat="59.5985282" lon="17.5111372">
        <ele>39.5513</ele>
        <time>2011-01-19T19:49:29Z</time>
      </trkpt>
      <trkpt lat="59.5987493" lon="17.5110083">
        <ele>39.5513</ele>
        <time>2011-01-19T19:49:33Z</time>
      </trkpt>
      <trkpt lat="59.5988469" lon="17.5109475">
        <ele>39.5513</ele>
        <time>2011-01-19T19:49:35Z</time>
      </trkpt>
      <trkpt lat="59.5991113" lon="17.5108398">
        <ele>37.1481</ele>
        <time>2011-01-19T19:49:40Z</time>
      </trkpt>
      <trkpt lat="59.5993394" lon="17.5108879">
        <ele>36.6675</ele>
        <time>2011-01-19T19:49:44Z</time>
      </trkpt>
      <trkpt lat="59.5993846" lon="17.5109285">
        <ele>36.6675</ele>
        <time>2011-01-19T19:49:45Z</time>
      </trkpt>
      <trkpt lat="59.5995332" lon="17.5112668">
        <ele>31.8607</ele>
        <time>2011-01-19T19:49:50Z</time>
      </trkpt>
      <trkpt lat="59.599545" lon="17.5116517">
        <ele>25.6123</ele>
        <time>2011-01-19T19:49:55Z</time>
      </trkpt>
      <trkpt lat="59.5995388" lon="17.5117241">
        <ele>24.1703</ele>
        <time>2011-01-19T19:49:56Z</time>
      </trkpt>
      <trkpt lat="59.5994561" lon="17.512082">
        <ele>19.8444</ele>
        <time>2011-01-19T19:50:01Z</time>
      </trkpt>
      <trkpt lat="59.5993187" lon="17.512242">
        <ele>18.4023</ele>
        <time>2011-01-19T19:50:06Z</time>
      </trkpt>
      <trkpt lat="59.5992891" lon="17.5122691">
        <ele>18.4023</ele>
        <time>2011-01-19T19:50:07Z</time>
      </trkpt>
      <trkpt lat="59.599183" lon="17.5126338">
        <ele>19.3638</ele>
        <time>2011-01-19T19:50:13Z</time>
      </trkpt>
      <trkpt lat="59.5992121" lon="17.5129558">
        <ele>22.2476</ele>
        <time>2011-01-19T19:50:17Z</time>
      </trkpt>
      <trkpt lat="59.5992092" lon="17.5130534">
        <ele>22.7283</ele>
        <time>2011-01-19T19:50:18Z</time>
      </trkpt>
      <trkpt lat="59.5991844" lon="17.5132223">
        <ele>24.1703</ele>
        <time>2011-01-19T19:50:20Z</time>
      </trkpt>
      <trkpt lat="59.5991002" lon="17.5135029">
        <ele>25.6123</ele>
        <time>2011-01-19T19:50:25Z</time>
      </trkpt>
      <trkpt lat="59.5989761" lon="17.5137443">
        <ele>25.1317</ele>
        <time>2011-01-19T19:50:31Z</time>
      </trkpt>
      <trkpt lat="59.5988668" lon="17.5138174">
        <ele>28.0155</ele>
        <time>2011-01-19T19:50:36Z</time>
      </trkpt>
      <trkpt lat="59.5987364" lon="17.5138278">
        <ele>30.4188</ele>
        <time>2011-01-19T19:50:41Z</time>
      </trkpt>
      <trkpt lat="59.5985535" lon="17.5138053">
        <ele>32.3416</ele>
        <time>2011-01-19T19:50:46Z</time>
      </trkpt>
      <trkpt lat="59.5983889" lon="17.5137968">
        <ele>35.7061</ele>
        <time>2011-01-19T19:50:50Z</time>
      </trkpt>
      <trkpt lat="59.5982147" lon="17.5138439">
        <ele>40.0321</ele>
        <time>2011-01-19T19:50:55Z</time>
      </trkpt>
      <trkpt lat="59.5981333" lon="17.5138615">
        <ele>41.9547</ele>
        <time>2011-01-19T19:50:58Z</time>
      </trkpt>
      <trkpt lat="59.5980086" lon="17.5139328">
        <ele>43.8773</ele>
        <time>2011-01-19T19:51:03Z</time>
      </trkpt>
      <trkpt lat="59.5978506" lon="17.5140773">
        <ele>43.8773</ele>
        <time>2011-01-19T19:51:08Z</time>
      </trkpt>
      <trkpt lat="59.5977808" lon="17.5142969">
        <ele>43.8773</ele>
        <time>2011-01-19T19:51:12Z</time>
      </trkpt>
      <trkpt lat="59.5976774" lon="17.5144592">
        <ele>43.8773</ele>
        <time>2011-01-19T19:51:16Z</time>
      </trkpt>
      <trkpt lat="59.597547" lon="17.5145587">
        <ele>44.358</ele>
        <time>2011-01-19T19:51:20Z</time>
      </trkpt>
      <trkpt lat="59.5973921" lon="17.5146389">
        <ele>44.358</ele>
        <time>2011-01-19T19:51:25Z</time>
      </trkpt>
      <trkpt lat="59.597229" lon="17.5147035">
        <ele>45.3192</ele>
        <time>2011-01-19T19:51:30Z</time>
      </trkpt>
      <trkpt lat="59.5970995" lon="17.5147797">
        <ele>46.7612</ele>
        <time>2011-01-19T19:51:34Z</time>
      </trkpt>
      <trkpt lat="59.5969439" lon="17.5148986">
        <ele>48.2034</ele>
        <time>2011-01-19T19:51:39Z</time>
      </trkpt>
      <trkpt lat="59.5967968" lon="17.5150402">
        <ele>48.2034</ele>
        <time>2011-01-19T19:51:44Z</time>
      </trkpt>
      <trkpt lat="59.5966726" lon="17.5151705">
        <ele>48.2034</ele>
        <time>2011-01-19T19:51:49Z</time>
      </trkpt>
      <trkpt lat="59.5965298" lon="17.5152901">
        <ele>47.7225</ele>
        <time>2011-01-19T19:51:54Z</time>
      </trkpt>
      <trkpt lat="59.5963721" lon="17.515474">
        <ele>46.7612</ele>
        <time>2011-01-19T19:52:00Z</time>
      </trkpt>
      <trkpt lat="59.5962696" lon="17.5155852">
        <ele>47.7225</ele>
        <time>2011-01-19T19:52:04Z</time>
      </trkpt>
      <trkpt lat="59.5961262" lon="17.5157383">
        <ele>48.2034</ele>
        <time>2011-01-19T19:52:09Z</time>
      </trkpt>
      <trkpt lat="59.5959899" lon="17.5159121">
        <ele>48.2034</ele>
        <time>2011-01-19T19:52:14Z</time>
      </trkpt>
      <trkpt lat="59.5958804" lon="17.5161136">
        <ele>47.7225</ele>
        <time>2011-01-19T19:52:19Z</time>
      </trkpt>
      <trkpt lat="59.5958199" lon="17.5163442">
        <ele>49.1646</ele>
        <time>2011-01-19T19:52:23Z</time>
      </trkpt>
      <trkpt lat="59.5957816" lon="17.516654">
        <ele>48.684</ele>
        <time>2011-01-19T19:52:28Z</time>
      </trkpt>
      <trkpt lat="59.5957377" lon="17.5169036">
        <ele>48.684</ele>
        <time>2011-01-19T19:52:32Z</time>
      </trkpt>
      <trkpt lat="59.5956191" lon="17.517206">
        <ele>48.2034</ele>
        <time>2011-01-19T19:52:36Z</time>
      </trkpt>
      <trkpt lat="59.5953641" lon="17.5174459">
        <ele>45.3192</ele>
        <time>2011-01-19T19:52:40Z</time>
      </trkpt>
      <trkpt lat="59.5952875" lon="17.5174724">
        <ele>44.8386</ele>
        <time>2011-01-19T19:52:41Z</time>
      </trkpt>
      <trkpt lat="59.5947121" lon="17.5176269">
        <ele>42.4354</ele>
        <time>2011-01-19T19:52:49Z</time>
      </trkpt>
      <trkpt lat="59.594583" lon="17.5176668">
        <ele>41.474</ele>
        <time>2011-01-19T19:52:51Z</time>
      </trkpt>
      <trkpt lat="59.5942727" lon="17.5178277">
        <ele>38.5901</ele>
        <time>2011-01-19T19:52:56Z</time>
      </trkpt>
      <trkpt lat="59.5941002" lon="17.5180154">
        <ele>38.5901</ele>
        <time>2011-01-19T19:52:59Z</time>
      </trkpt>
      <trkpt lat="59.5940226" lon="17.518061">
        <ele>40.0321</ele>
        <time>2011-01-19T19:53:01Z</time>
      </trkpt>
      <trkpt lat="59.5938566" lon="17.518149">
        <ele>41.474</ele>
        <time>2011-01-19T19:53:06Z</time>
      </trkpt>
      <trkpt lat="59.5937734" lon="17.5181812">
        <ele>40.5128</ele>
        <time>2011-01-19T19:53:08Z</time>
      </trkpt>
      <trkpt lat="59.5935818" lon="17.5183614">
        <ele>40.0321</ele>
        <time>2011-01-19T19:53:13Z</time>
      </trkpt>
      <trkpt lat="59.5935204" lon="17.5184712">
        <ele>40.0321</ele>
        <time>2011-01-19T19:53:15Z</time>
      </trkpt>
      <trkpt lat="59.5934242" lon="17.5186162">
        <ele>39.5513</ele>
        <time>2011-01-19T19:53:18Z</time>
      </trkpt>
      <trkpt lat="59.5932408" lon="17.5187463">
        <ele>36.6675</ele>
        <time>2011-01-19T19:53:22Z</time>
      </trkpt>
      <trkpt lat="59.5930384" lon="17.5187173">
        <ele>34.2642</ele>
        <time>2011-01-19T19:53:26Z</time>
      </trkpt>
      <trkpt lat="59.5928799" lon="17.5185386">
        <ele>32.3416</ele>
        <time>2011-01-19T19:53:30Z</time>
      </trkpt>
      <trkpt lat="59.5928069" lon="17.5184173">
        <ele>32.3416</ele>
        <time>2011-01-19T19:53:32Z</time>
      </trkpt>
      <trkpt lat="59.5927058" lon="17.5181732">
        <ele>31.8607</ele>
        <time>2011-01-19T19:53:35Z</time>
      </trkpt>
      <trkpt lat="59.5926389" lon="17.5177487">
        <ele>33.3029</ele>
        <time>2011-01-19T19:53:40Z</time>
      </trkpt>
      <trkpt lat="59.5926602" lon="17.5174469">
        <ele>36.1868</ele>
        <time>2011-01-19T19:53:44Z</time>
      </trkpt>
      <trkpt lat="59.5926871" lon="17.5170814">
        <ele>38.1094</ele>
        <time>2011-01-19T19:53:48Z</time>
      </trkpt>
      <trkpt lat="59.5927134" lon="17.5167541">
        <ele>39.0707</ele>
        <time>2011-01-19T19:53:51Z</time>
      </trkpt>
      <trkpt lat="59.5928456" lon="17.5162395">
        <ele>38.1094</ele>
        <time>2011-01-19T19:53:56Z</time>
      </trkpt>
      <trkpt lat="59.5929969" lon="17.5158491">
        <ele>35.7061</ele>
        <time>2011-01-19T19:54:00Z</time>
      </trkpt>
      <trkpt lat="59.593257" lon="17.5150371">
        <ele>33.7834</ele>
        <time>2011-01-19T19:54:07Z</time>
      </trkpt>
      <trkpt lat="59.5934459" lon="17.5147279">
        <ele>34.7449</ele>
        <time>2011-01-19T19:54:11Z</time>
      </trkpt>
      <trkpt lat="59.5936861" lon="17.5145389">
        <ele>38.5901</ele>
        <time>2011-01-19T19:54:16Z</time>
      </trkpt>
      <trkpt lat="59.5938106" lon="17.5145059">
        <ele>39.0707</ele>
        <time>2011-01-19T19:54:19Z</time>
      </trkpt>
      <trkpt lat="59.5939671" lon="17.5146671">
        <ele>39.5513</ele>
        <time>2011-01-19T19:54:24Z</time>
      </trkpt>
      <trkpt lat="59.5940081" lon="17.5147491">
        <ele>40.0321</ele>
        <time>2011-01-19T19:54:26Z</time>
      </trkpt>
      <trkpt lat="59.5941002" lon="17.5149255">
        <ele>41.9547</ele>
        <time>2011-01-19T19:54:31Z</time>
      </trkpt>
      <trkpt lat="59.5941993" lon="17.5150751">
        <ele>45.3192</ele>
        <time>2011-01-19T19:54:36Z</time>
      </trkpt>
      <trkpt lat="59.5943235" lon="17.5152379">
        <ele>47.2418</ele>
        <time>2011-01-19T19:54:42Z</time>
      </trkpt>
      <trkpt lat="59.5944494" lon="17.5153615">
        <ele>49.6453</ele>
        <time>2011-01-19T19:54:47Z</time>
      </trkpt>
      <trkpt lat="59.5945893" lon="17.515465">
        <ele>51.5679</ele>
        <time>2011-01-19T19:54:52Z</time>
      </trkpt>
      <trkpt lat="59.5947282" lon="17.5155437">
        <ele>53.0098</ele>
        <time>2011-01-19T19:54:56Z</time>
      </trkpt>
      <trkpt lat="59.5949156" lon="17.5156078">
        <ele>52.0486</ele>
        <time>2011-01-19T19:55:01Z</time>
      </trkpt>
      <trkpt lat="59.5951425" lon="17.5155692">
        <ele>50.6066</ele>
        <time>2011-01-19T19:55:07Z</time>
      </trkpt>
      <trkpt lat="59.595262" lon="17.5155323">
        <ele>50.126</ele>
        <time>2011-01-19T19:55:11Z</time>
      </trkpt>
      <trkpt lat="59.5953646" lon="17.515491">
        <ele>51.5679</ele>
        <time>2011-01-19T19:55:15Z</time>
      </trkpt>
      <trkpt lat="59.5954787" lon="17.5152645">
        <ele>53.9712</ele>
        <time>2011-01-19T19:55:21Z</time>
      </trkpt>
      <trkpt lat="59.5955505" lon="17.5151118">
        <ele>52.5292</ele>
        <time>2011-01-19T19:55:25Z</time>
      </trkpt>
      <trkpt lat="59.5956061" lon="17.514851">
        <ele>52.5292</ele>
        <time>2011-01-19T19:55:29Z</time>
      </trkpt>
      <trkpt lat="59.5957018" lon="17.5144818">
        <ele>49.6453</ele>
        <time>2011-01-19T19:55:34Z</time>
      </trkpt>
      <trkpt lat="59.5957418" lon="17.5141174">
        <ele>48.684</ele>
        <time>2011-01-19T19:55:38Z</time>
      </trkpt>
      <trkpt lat="59.5957553" lon="17.5136784">
        <ele>46.2806</ele>
        <time>2011-01-19T19:55:42Z</time>
      </trkpt>
      <trkpt lat="59.5957733" lon="17.5132594">
        <ele>44.358</ele>
        <time>2011-01-19T19:55:45Z</time>
      </trkpt>
      <trkpt lat="59.5959445" lon="17.5127782">
        <ele>42.4354</ele>
        <time>2011-01-19T19:55:49Z</time>
      </trkpt>
      <trkpt lat="59.5960118" lon="17.5127269">
        <ele>41.9547</ele>
        <time>2011-01-19T19:55:50Z</time>
      </trkpt>
      <trkpt lat="59.596408" lon="17.5125757">
        <ele>41.9547</ele>
        <time>2011-01-19T19:55:56Z</time>
      </trkpt>
      <trkpt lat="59.5966214" lon="17.5125434">
        <ele>42.916</ele>
        <time>2011-01-19T19:56:00Z</time>
      </trkpt>
      <trkpt lat="59.5967763" lon="17.5125279">
        <ele>42.4354</ele>
        <time>2011-01-19T19:56:03Z</time>
      </trkpt>
      <trkpt lat="59.5970253" lon="17.5124153">
        <ele>42.4354</ele>
        <time>2011-01-19T19:56:08Z</time>
      </trkpt>
      <trkpt lat="59.597162" lon="17.5123454">
        <ele>41.474</ele>
        <time>2011-01-19T19:56:11Z</time>
      </trkpt>
      <trkpt lat="59.5973988" lon="17.5121817">
        <ele>38.5901</ele>
        <time>2011-01-19T19:56:16Z</time>
      </trkpt>
      <trkpt lat="59.5976171" lon="17.512076">
        <ele>36.6675</ele>
        <time>2011-01-19T19:56:21Z</time>
      </trkpt>
      <trkpt lat="59.5978398" lon="17.5119073">
        <ele>35.7061</ele>
        <time>2011-01-19T19:56:26Z</time>
      </trkpt>
      <trkpt lat="59.5979271" lon="17.5118081">
        <ele>35.2255</ele>
        <time>2011-01-19T19:56:28Z</time>
      </trkpt>
      <trkpt lat="59.5981996" lon="17.5113588">
        <ele>35.7061</ele>
        <time>2011-01-19T19:56:35Z</time>
      </trkpt>
      <trkpt lat="59.5982776" lon="17.5112189">
        <ele>35.7061</ele>
        <time>2011-01-19T19:56:37Z</time>
      </trkpt>
      <trkpt lat="59.5984287" lon="17.5110247">
        <ele>34.7449</ele>
        <time>2011-01-19T19:56:40Z</time>
      </trkpt>
      <trkpt lat="59.598642" lon="17.5109077">
        <ele>34.2642</ele>
        <time>2011-01-19T19:56:44Z</time>
      </trkpt>
      <trkpt lat="59.5987934" lon="17.510849">
        <ele>32.8223</ele>
        <time>2011-01-19T19:56:47Z</time>
      </trkpt>
      <trkpt lat="59.5988836" lon="17.510824">
        <ele>32.3416</ele>
        <time>2011-01-19T19:56:49Z</time>
      </trkpt>
      <trkpt lat="59.5990817" lon="17.5107777">
        <ele>29.9381</ele>
        <time>2011-01-19T19:56:53Z</time>
      </trkpt>
      <trkpt lat="59.5993367" lon="17.5108991">
        <ele>31.3801</ele>
        <time>2011-01-19T19:56:58Z</time>
      </trkpt>
      <trkpt lat="59.5994555" lon="17.5110816">
        <ele>32.8223</ele>
        <time>2011-01-19T19:57:01Z</time>
      </trkpt>
      <trkpt lat="59.5995133" lon="17.5115392">
        <ele>33.3029</ele>
        <time>2011-01-19T19:57:07Z</time>
      </trkpt>
      <trkpt lat="59.5995259" lon="17.5118505">
        <ele>32.8223</ele>
        <time>2011-01-19T19:57:11Z</time>
      </trkpt>
      <trkpt lat="59.5995224" lon="17.5119303">
        <ele>33.3029</ele>
        <time>2011-01-19T19:57:12Z</time>
      </trkpt>
      <trkpt lat="59.5995066" lon="17.5120549">
        <ele>33.3029</ele>
        <time>2011-01-19T19:57:14Z</time>
      </trkpt>
      <trkpt lat="59.5993607" lon="17.5123022">
        <ele>30.8995</ele>
        <time>2011-01-19T19:57:20Z</time>
      </trkpt>
      <trkpt lat="59.5991973" lon="17.5125706">
        <ele>29.9381</ele>
        <time>2011-01-19T19:57:26Z</time>
      </trkpt>
      <trkpt lat="59.5991675" lon="17.5127874">
        <ele>31.8607</ele>
        <time>2011-01-19T19:57:29Z</time>
      </trkpt>
      <trkpt lat="59.599204" lon="17.5130977">
        <ele>32.3416</ele>
        <time>2011-01-19T19:57:33Z</time>
      </trkpt>
      <trkpt lat="59.5991394" lon="17.513416">
        <ele>32.8223</ele>
        <time>2011-01-19T19:57:38Z</time>
      </trkpt>
      <trkpt lat="59.5990415" lon="17.5136615">
        <ele>31.8607</ele>
        <time>2011-01-19T19:57:43Z</time>
      </trkpt>
      <trkpt lat="59.5989344" lon="17.5137997">
        <ele>32.3416</ele>
        <time>2011-01-19T19:57:47Z</time>
      </trkpt>
      <trkpt lat="59.5988046" lon="17.5138414">
        <ele>34.2642</ele>
        <time>2011-01-19T19:57:52Z</time>
      </trkpt>
      <trkpt lat="59.5986815" lon="17.5138366">
        <ele>34.7449</ele>
        <time>2011-01-19T19:57:56Z</time>
      </trkpt>
      <trkpt lat="59.5985509" lon="17.5138395">
        <ele>36.1868</ele>
        <time>2011-01-19T19:58:00Z</time>
      </trkpt>
      <trkpt lat="59.5984065" lon="17.513851">
        <ele>38.1094</ele>
        <time>2011-01-19T19:58:04Z</time>
      </trkpt>
      <trkpt lat="59.5981842" lon="17.5138739">
        <ele>39.5513</ele>
        <time>2011-01-19T19:58:11Z</time>
      </trkpt>
      <trkpt lat="59.5980898" lon="17.5139139">
        <ele>41.474</ele>
        <time>2011-01-19T19:58:15Z</time>
      </trkpt>
      <trkpt lat="59.5979927" lon="17.5139754">
        <ele>41.9547</ele>
        <time>2011-01-19T19:58:19Z</time>
      </trkpt>
      <trkpt lat="59.5978875" lon="17.514114">
        <ele>41.474</ele>
        <time>2011-01-19T19:58:23Z</time>
      </trkpt>
      <trkpt lat="59.5977453" lon="17.5144141">
        <ele>40.9934</ele>
        <time>2011-01-19T19:58:29Z</time>
      </trkpt>
      <trkpt lat="59.5976334" lon="17.5145502">
        <ele>41.474</ele>
        <time>2011-01-19T19:58:33Z</time>
      </trkpt>
      <trkpt lat="59.5974985" lon="17.5146348">
        <ele>42.4354</ele>
        <time>2011-01-19T19:58:38Z</time>
      </trkpt>
      <trkpt lat="59.5973797" lon="17.5146663">
        <ele>43.8773</ele>
        <time>2011-01-19T19:58:41Z</time>
      </trkpt>
      <trkpt lat="59.5972539" lon="17.5147285">
        <ele>45.3192</ele>
        <time>2011-01-19T19:58:45Z</time>
      </trkpt>
      <trkpt lat="59.5971109" lon="17.5148291">
        <ele>45.7999</ele>
        <time>2011-01-19T19:58:49Z</time>
      </trkpt>
      <trkpt lat="59.5969726" lon="17.5148909">
        <ele>46.7612</ele>
        <time>2011-01-19T19:58:53Z</time>
      </trkpt>
      <trkpt lat="59.5968325" lon="17.5149958">
        <ele>48.2034</ele>
        <time>2011-01-19T19:58:58Z</time>
      </trkpt>
      <trkpt lat="59.5967358" lon="17.5150787">
        <ele>49.1646</ele>
        <time>2011-01-19T19:59:02Z</time>
      </trkpt>
      <trkpt lat="59.5966292" lon="17.515176">
        <ele>49.1646</ele>
        <time>2011-01-19T19:59:07Z</time>
      </trkpt>
      <trkpt lat="59.5964996" lon="17.515292">
        <ele>50.126</ele>
        <time>2011-01-19T19:59:12Z</time>
      </trkpt>
      <trkpt lat="59.5963722" lon="17.5154174">
        <ele>49.6453</ele>
        <time>2011-01-19T19:59:17Z</time>
      </trkpt>
      <trkpt lat="59.596239" lon="17.515559">
        <ele>49.6453</ele>
        <time>2011-01-19T19:59:22Z</time>
      </trkpt>
      <trkpt lat="59.596194" lon="17.5156108">
        <ele>49.6453</ele>
        <time>2011-01-19T19:59:24Z</time>
      </trkpt>
      <trkpt lat="59.5960754" lon="17.5157512">
        <ele>50.6066</ele>
        <time>2011-01-19T19:59:28Z</time>
      </trkpt>
      <trkpt lat="59.5959671" lon="17.5159158">
        <ele>52.0486</ele>
        <time>2011-01-19T19:59:32Z</time>
      </trkpt>
      <trkpt lat="59.595892" lon="17.5160267">
        <ele>53.0098</ele>
        <time>2011-01-19T19:59:35Z</time>
      </trkpt>
      <trkpt lat="59.5958007" lon="17.5162686">
        <ele>54.4518</ele>
        <time>2011-01-19T19:59:40Z</time>
      </trkpt>
      <trkpt lat="59.5957401" lon="17.5166246">
        <ele>54.4518</ele>
        <time>2011-01-19T19:59:45Z</time>
      </trkpt>
      <trkpt lat="59.5956843" lon="17.516929">
        <ele>52.5292</ele>
        <time>2011-01-19T19:59:49Z</time>
      </trkpt>
      <trkpt lat="59.5955674" lon="17.5172483">
        <ele>51.5679</ele>
        <time>2011-01-19T19:59:54Z</time>
      </trkpt>
      <trkpt lat="59.5952408" lon="17.5175196">
        <ele>48.684</ele>
        <time>2011-01-19T19:59:59Z</time>
      </trkpt>
      <trkpt lat="59.5949364" lon="17.5176196">
        <ele>47.7225</ele>
        <time>2011-01-19T20:00:03Z</time>
      </trkpt>
      <trkpt lat="59.5944882" lon="17.5177614">
        <ele>45.7999</ele>
        <time>2011-01-19T20:00:10Z</time>
      </trkpt>
      <trkpt lat="59.5943188" lon="17.5178755">
        <ele>47.2418</ele>
        <time>2011-01-19T20:00:14Z</time>
      </trkpt>
      <trkpt lat="59.594118" lon="17.5180278">
        <ele>45.7999</ele>
        <time>2011-01-19T20:00:19Z</time>
      </trkpt>
      <trkpt lat="59.5940877" lon="17.5180553">
        <ele>45.7999</ele>
        <time>2011-01-19T20:00:20Z</time>
      </trkpt>
      <trkpt lat="59.5938819" lon="17.5182044">
        <ele>43.3966</ele>
        <time>2011-01-19T20:00:26Z</time>
      </trkpt>
      <trkpt lat="59.5937882" lon="17.518219">
        <ele>41.474</ele>
        <time>2011-01-19T20:00:28Z</time>
      </trkpt>
      <trkpt lat="59.59356" lon="17.5183758">
        <ele>39.0707</ele>
        <time>2011-01-19T20:00:33Z</time>
      </trkpt>
      <trkpt lat="59.5934596" lon="17.5185205">
        <ele>40.0321</ele>
        <time>2011-01-19T20:00:36Z</time>
      </trkpt>
      <trkpt lat="59.5932735" lon="17.5187323">
        <ele>37.1481</ele>
        <time>2011-01-19T20:00:41Z</time>
      </trkpt>
      <trkpt lat="59.5932289" lon="17.5187428">
        <ele>37.1481</ele>
        <time>2011-01-19T20:00:42Z</time>
      </trkpt>
      <trkpt lat="59.5931367" lon="17.5187459">
        <ele>36.6675</ele>
        <time>2011-01-19T20:00:44Z</time>
      </trkpt>
      <trkpt lat="59.5930414" lon="17.5186981">
        <ele>36.6675</ele>
        <time>2011-01-19T20:00:46Z</time>
      </trkpt>
      <trkpt lat="59.5929179" lon="17.5185407">
        <ele>37.1481</ele>
        <time>2011-01-19T20:00:49Z</time>
      </trkpt>
      <trkpt lat="59.592796" lon="17.5183307">
        <ele>38.1094</ele>
        <time>2011-01-19T20:00:52Z</time>
      </trkpt>
      <trkpt lat="59.5926752" lon="17.5179846">
        <ele>39.0707</ele>
        <time>2011-01-19T20:00:56Z</time>
      </trkpt>
      <trkpt lat="59.5926533" lon="17.5176803">
        <ele>38.5901</ele>
        <time>2011-01-19T20:01:00Z</time>
      </trkpt>
      <trkpt lat="59.5926669" lon="17.5175263">
        <ele>38.1094</ele>
        <time>2011-01-19T20:01:02Z</time>
      </trkpt>
      <trkpt lat="59.5926841" lon="17.5172134">
        <ele>36.6675</ele>
        <time>2011-01-19T20:01:06Z</time>
      </trkpt>
      <trkpt lat="59.5927317" lon="17.5167056">
        <ele>33.7834</ele>
        <time>2011-01-19T20:01:12Z</time>
      </trkpt>
      <trkpt lat="59.5927379" lon="17.5165975">
        <ele>33.7834</ele>
        <time>2011-01-19T20:01:13Z</time>
      </trkpt>
      <trkpt lat="59.5928166" lon="17.5162048">
        <ele>34.7449</ele>
        <time>2011-01-19T20:01:17Z</time>
      </trkpt>
      <trkpt lat="59.5928793" lon="17.5160252">
        <ele>34.2642</ele>
        <time>2011-01-19T20:01:19Z</time>
      </trkpt>
      <trkpt lat="59.5930959" lon="17.515416">
        <ele>34.7449</ele>
        <time>2011-01-19T20:01:25Z</time>
      </trkpt>
      <trkpt lat="59.593264" lon="17.5149967">
        <ele>34.7449</ele>
        <time>2011-01-19T20:01:29Z</time>
      </trkpt>
      <trkpt lat="59.5933559" lon="17.5148254">
        <ele>35.7061</ele>
        <time>2011-01-19T20:01:31Z</time>
      </trkpt>
      <trkpt lat="59.593504" lon="17.5146862">
        <ele>35.7061</ele>
        <time>2011-01-19T20:01:34Z</time>
      </trkpt>
      <trkpt lat="59.5937215" lon="17.5145535">
        <ele>37.1481</ele>
        <time>2011-01-19T20:01:39Z</time>
      </trkpt>
      <trkpt lat="59.5938582" lon="17.5145862">
        <ele>37.1481</ele>
        <time>2011-01-19T20:01:43Z</time>
      </trkpt>
      <trkpt lat="59.59398" lon="17.5147212">
        <ele>38.5901</ele>
        <time>2011-01-19T20:01:48Z</time>
      </trkpt>
      <trkpt lat="59.5940214" lon="17.5148018">
        <ele>39.5513</ele>
        <time>2011-01-19T20:01:50Z</time>
      </trkpt>
      <trkpt lat="59.594143" lon="17.515012">
        <ele>41.9547</ele>
        <time>2011-01-19T20:01:56Z</time>
      </trkpt>
      <trkpt lat="59.5942379" lon="17.5151853">
        <ele>45.3192</ele>
        <time>2011-01-19T20:02:01Z</time>
      </trkpt>
      <trkpt lat="59.5943318" lon="17.5152662">
        <ele>47.2418</ele>
        <time>2011-01-19T20:02:06Z</time>
      </trkpt>
      <trkpt lat="59.5944131" lon="17.5153537">
        <ele>49.1646</ele>
        <time>2011-01-19T20:02:10Z</time>
      </trkpt>
      <trkpt lat="59.5944994" lon="17.5154125">
        <ele>52.5292</ele>
        <time>2011-01-19T20:02:14Z</time>
      </trkpt>
      <trkpt lat="59.5946199" lon="17.5154865">
        <ele>53.9712</ele>
        <time>2011-01-19T20:02:18Z</time>
      </trkpt>
      <trkpt lat="59.5947353" lon="17.5155719">
        <ele>53.0098</ele>
        <time>2011-01-19T20:02:22Z</time>
      </trkpt>
      <trkpt lat="59.5949449" lon="17.5156342">
        <ele>51.5679</ele>
        <time>2011-01-19T20:02:28Z</time>
      </trkpt>
      <trkpt lat="59.5950456" lon="17.5156233">
        <ele>50.126</ele>
        <time>2011-01-19T20:02:31Z</time>
      </trkpt>
      <trkpt lat="59.5952243" lon="17.5156">
        <ele>50.126</ele>
        <time>2011-01-19T20:02:36Z</time>
      </trkpt>
      <trkpt lat="59.5952849" lon="17.515588">
        <ele>51.0872</ele>
        <time>2011-01-19T20:02:38Z</time>
      </trkpt>
      <trkpt lat="59.5953869" lon="17.5155106">
        <ele>53.4905</ele>
        <time>2011-01-19T20:02:43Z</time>
      </trkpt>
      <trkpt lat="59.5954258" lon="17.5154326">
        <ele>53.0098</ele>
        <time>2011-01-19T20:02:45Z</time>
      </trkpt>
      <trkpt lat="59.5955071" lon="17.5152037">
        <ele>53.4905</ele>
        <time>2011-01-19T20:02:50Z</time>
      </trkpt>
      <trkpt lat="59.5955931" lon="17.5149068">
        <ele>52.0486</ele>
        <time>2011-01-19T20:02:55Z</time>
      </trkpt>
      <trkpt lat="59.5956486" lon="17.5146256">
        <ele>50.6066</ele>
        <time>2011-01-19T20:02:59Z</time>
      </trkpt>
      <trkpt lat="59.5957079" lon="17.5143038">
        <ele>49.1646</ele>
        <time>2011-01-19T20:03:03Z</time>
      </trkpt>
      <trkpt lat="59.5957483" lon="17.5137926">
        <ele>46.7612</ele>
        <time>2011-01-19T20:03:08Z</time>
      </trkpt>
      <trkpt lat="59.595772" lon="17.5132479">
        <ele>45.3192</ele>
        <time>2011-01-19T20:03:12Z</time>
      </trkpt>
      <trkpt lat="59.5959464" lon="17.512771">
        <ele>44.358</ele>
        <time>2011-01-19T20:03:16Z</time>
      </trkpt>
      <trkpt lat="59.5960177" lon="17.5127235">
        <ele>43.8773</ele>
        <time>2011-01-19T20:03:17Z</time>
      </trkpt>
      <trkpt lat="59.5964159" lon="17.5125742">
        <ele>44.358</ele>
        <time>2011-01-19T20:03:23Z</time>
      </trkpt>
      <trkpt lat="59.5965246" lon="17.5125561">
        <ele>44.358</ele>
        <time>2011-01-19T20:03:25Z</time>
      </trkpt>
      <trkpt lat="59.5966757" lon="17.5125556">
        <ele>45.3192</ele>
        <time>2011-01-19T20:03:28Z</time>
      </trkpt>
      <trkpt lat="59.5967815" lon="17.5125329">
        <ele>46.2806</ele>
        <time>2011-01-19T20:03:30Z</time>
      </trkpt>
      <trkpt lat="59.5969874" lon="17.5124567">
        <ele>45.3192</ele>
        <time>2011-01-19T20:03:34Z</time>
      </trkpt>
      <trkpt lat="59.5971266" lon="17.5123691">
        <ele>44.8386</ele>
        <time>2011-01-19T20:03:37Z</time>
      </trkpt>
      <trkpt lat="59.5972117" lon="17.5123203">
        <ele>44.358</ele>
        <time>2011-01-19T20:03:39Z</time>
      </trkpt>
      <trkpt lat="59.5973772" lon="17.5122602">
        <ele>44.358</ele>
        <time>2011-01-19T20:03:43Z</time>
      </trkpt>
      <trkpt lat="59.597575" lon="17.5121767">
        <ele>43.3966</ele>
        <time>2011-01-19T20:03:48Z</time>
      </trkpt>
      <trkpt lat="59.5977404" lon="17.5120256">
        <ele>43.8773</ele>
        <time>2011-01-19T20:03:52Z</time>
      </trkpt>
      <trkpt lat="59.597932" lon="17.511907">
        <ele>44.358</ele>
        <time>2011-01-19T20:03:56Z</time>
      </trkpt>
      <trkpt lat="59.5980149" lon="17.5118055">
        <ele>43.8773</ele>
        <time>2011-01-19T20:03:58Z</time>
      </trkpt>
      <trkpt lat="59.5981514" lon="17.5115853">
        <ele>44.358</ele>
        <time>2011-01-19T20:04:01Z</time>
      </trkpt>
      <trkpt lat="59.5983675" lon="17.5112357">
        <ele>42.4354</ele>
        <time>2011-01-19T20:04:06Z</time>
      </trkpt>
      <trkpt lat="59.5985295" lon="17.5110653">
        <ele>40.9934</ele>
        <time>2011-01-19T20:04:09Z</time>
      </trkpt>
      <trkpt lat="59.5987778" lon="17.510903">
        <ele>40.9934</ele>
        <time>2011-01-19T20:04:14Z</time>
      </trkpt>
      <trkpt lat="59.5988205" lon="17.510873">
        <ele>40.9934</ele>
        <time>2011-01-19T20:04:15Z</time>
      </trkpt>
      <trkpt lat="59.5989152" lon="17.5108236">
        <ele>40.5128</ele>
        <time>2011-01-19T20:04:17Z</time>
      </trkpt>
      <trkpt lat="59.5991653" lon="17.5107746">
        <ele>40.9934</ele>
        <time>2011-01-19T20:04:22Z</time>
      </trkpt>
      <trkpt lat="59.599316" lon="17.5109254">
        <ele>40.0321</ele>
        <time>2011-01-19T20:04:25Z</time>
      </trkpt>
      <trkpt lat="59.599398" lon="17.511055">
        <ele>39.0707</ele>
        <time>2011-01-19T20:04:27Z</time>
      </trkpt>
      <trkpt lat="59.59952" lon="17.5114137">
        <ele>38.1094</ele>
        <time>2011-01-19T20:04:32Z</time>
      </trkpt>
      <trkpt lat="59.599529" lon="17.511489">
        <ele>38.1094</ele>
        <time>2011-01-19T20:04:33Z</time>
      </trkpt>
      <trkpt lat="59.599545" lon="17.5119515">
        <ele>37.1481</ele>
        <time>2011-01-19T20:04:39Z</time>
      </trkpt>
      <trkpt lat="59.5994466" lon="17.5122489">
        <ele>35.7061</ele>
        <time>2011-01-19T20:04:44Z</time>
      </trkpt>
      <trkpt lat="59.5993125" lon="17.5123841">
        <ele>32.8223</ele>
        <time>2011-01-19T20:04:48Z</time>
      </trkpt>
      <trkpt lat="59.5992389" lon="17.5125856">
        <ele>32.3416</ele>
        <time>2011-01-19T20:04:52Z</time>
      </trkpt>
      <trkpt lat="59.5992305" lon="17.5128924">
        <ele>32.8223</ele>
        <time>2011-01-19T20:04:56Z</time>
      </trkpt>
      <trkpt lat="59.5992125" lon="17.5132443">
        <ele>34.2642</ele>
        <time>2011-01-19T20:05:00Z</time>
      </trkpt>
      <trkpt lat="59.5991809" lon="17.5134605">
        <ele>33.7834</ele>
        <time>2011-01-19T20:05:03Z</time>
      </trkpt>
      <trkpt lat="59.5990337" lon="17.5137304">
        <ele>33.3029</ele>
        <time>2011-01-19T20:05:09Z</time>
      </trkpt>
      <trkpt lat="59.5988947" lon="17.5138519">
        <ele>32.8223</ele>
        <time>2011-01-19T20:05:14Z</time>
      </trkpt>
      <trkpt lat="59.5988078" lon="17.5138849">
        <ele>34.2642</ele>
        <time>2011-01-19T20:05:18Z</time>
      </trkpt>
      <trkpt lat="59.5987873" lon="17.5138904">
        <ele>34.2642</ele>
        <time>2011-01-19T20:05:19Z</time>
      </trkpt>
      <trkpt lat="59.5986572" lon="17.5138748">
        <ele>36.6675</ele>
        <time>2011-01-19T20:05:24Z</time>
      </trkpt>
      <trkpt lat="59.5985162" lon="17.5138576">
        <ele>40.9934</ele>
        <time>2011-01-19T20:05:28Z</time>
      </trkpt>
      <trkpt lat="59.5983456" lon="17.5138198">
        <ele>42.916</ele>
        <time>2011-01-19T20:05:33Z</time>
      </trkpt>
      <trkpt lat="59.5982126" lon="17.5138577">
        <ele>43.8773</ele>
        <time>2011-01-19T20:05:37Z</time>
      </trkpt>
      <trkpt lat="59.5980868" lon="17.5139107">
        <ele>44.358</ele>
        <time>2011-01-19T20:05:42Z</time>
      </trkpt>
      <trkpt lat="59.5979654" lon="17.5139713">
        <ele>43.8773</ele>
        <time>2011-01-19T20:05:47Z</time>
      </trkpt>
      <trkpt lat="59.5978836" lon="17.5141054">
        <ele>43.3966</ele>
        <time>2011-01-19T20:05:51Z</time>
      </trkpt>
      <trkpt lat="59.5977563" lon="17.5143567">
        <ele>42.4354</ele>
        <time>2011-01-19T20:05:57Z</time>
      </trkpt>
      <trkpt lat="59.5976134" lon="17.5145038">
        <ele>41.9547</ele>
        <time>2011-01-19T20:06:02Z</time>
      </trkpt>
      <trkpt lat="59.5974626" lon="17.5146134">
        <ele>43.3966</ele>
        <time>2011-01-19T20:06:07Z</time>
      </trkpt>
      <trkpt lat="59.5973409" lon="17.5146365">
        <ele>44.8386</ele>
        <time>2011-01-19T20:06:11Z</time>
      </trkpt>
      <trkpt lat="59.5971607" lon="17.5147027">
        <ele>43.3966</ele>
        <time>2011-01-19T20:06:16Z</time>
      </trkpt>
      <trkpt lat="59.5970088" lon="17.5148379">
        <ele>41.9547</ele>
        <time>2011-01-19T20:06:21Z</time>
      </trkpt>
      <trkpt lat="59.596872" lon="17.5149757">
        <ele>42.4354</ele>
        <time>2011-01-19T20:06:26Z</time>
      </trkpt>
      <trkpt lat="59.5967467" lon="17.5150866">
        <ele>43.3966</ele>
        <time>2011-01-19T20:06:31Z</time>
      </trkpt>
      <trkpt lat="59.5965939" lon="17.5152067">
        <ele>43.3966</ele>
        <time>2011-01-19T20:06:37Z</time>
      </trkpt>
      <trkpt lat="59.5964598" lon="17.5153398">
        <ele>42.4354</ele>
        <time>2011-01-19T20:06:42Z</time>
      </trkpt>
      <trkpt lat="59.5963095" lon="17.5154927">
        <ele>40.5128</ele>
        <time>2011-01-19T20:06:48Z</time>
      </trkpt>
      <trkpt lat="59.5961641" lon="17.5156334">
        <ele>40.0321</ele>
        <time>2011-01-19T20:06:53Z</time>
      </trkpt>
      <trkpt lat="59.5960076" lon="17.5158449">
        <ele>41.9547</ele>
        <time>2011-01-19T20:06:58Z</time>
      </trkpt>
      <trkpt lat="59.5959153" lon="17.5159914">
        <ele>43.3966</ele>
        <time>2011-01-19T20:07:02Z</time>
      </trkpt>
      <trkpt lat="59.5958423" lon="17.516168">
        <ele>44.8386</ele>
        <time>2011-01-19T20:07:06Z</time>
      </trkpt>
      <trkpt lat="59.5957926" lon="17.5164054">
        <ele>47.2418</ele>
        <time>2011-01-19T20:07:10Z</time>
      </trkpt>
      <trkpt lat="59.5957391" lon="17.5167213">
        <ele>48.684</ele>
        <time>2011-01-19T20:07:14Z</time>
      </trkpt>
      <trkpt lat="59.5956927" lon="17.5170141">
        <ele>50.126</ele>
        <time>2011-01-19T20:07:18Z</time>
      </trkpt>
      <trkpt lat="59.5956774" lon="17.5171642">
        <ele>50.6066</ele>
        <time>2011-01-19T20:07:20Z</time>
      </trkpt>
      <trkpt lat="59.5954505" lon="17.5174616">
        <ele>49.1646</ele>
        <time>2011-01-19T20:07:24Z</time>
      </trkpt>
      <trkpt lat="59.595276" lon="17.5175296">
        <ele>47.7225</ele>
        <time>2011-01-19T20:07:26Z</time>
      </trkpt>
      <trkpt lat="59.5947436" lon="17.5176793">
        <ele>44.358</ele>
        <time>2011-01-19T20:07:33Z</time>
      </trkpt>
      <trkpt lat="59.5944373" lon="17.5177797">
        <ele>44.358</ele>
        <time>2011-01-19T20:07:38Z</time>
      </trkpt>
      <trkpt lat="59.5942542" lon="17.5179139">
        <ele>42.4354</ele>
        <time>2011-01-19T20:07:42Z</time>
      </trkpt>
      <trkpt lat="59.594091" lon="17.5180594">
        <ele>40.9934</ele>
        <time>2011-01-19T20:07:46Z</time>
      </trkpt>
      <trkpt lat="59.5938423" lon="17.5181677">
        <ele>39.5513</ele>
        <time>2011-01-19T20:07:53Z</time>
      </trkpt>
      <trkpt lat="59.5936888" lon="17.5182356">
        <ele>38.1094</ele>
        <time>2011-01-19T20:07:57Z</time>
      </trkpt>
      <trkpt lat="59.5935506" lon="17.5183659">
        <ele>36.6675</ele>
        <time>2011-01-19T20:08:01Z</time>
      </trkpt>
      <trkpt lat="59.593446" lon="17.518507">
        <ele>34.2642</ele>
        <time>2011-01-19T20:08:04Z</time>
      </trkpt>
      <trkpt lat="59.5934052" lon="17.5185482">
        <ele>33.3029</ele>
        <time>2011-01-19T20:08:05Z</time>
      </trkpt>
      <trkpt lat="59.5931207" lon="17.5187057">
        <ele>28.9769</ele>
        <time>2011-01-19T20:08:11Z</time>
      </trkpt>
      <trkpt lat="59.5928706" lon="17.5185722">
        <ele>27.0543</ele>
        <time>2011-01-19T20:08:16Z</time>
      </trkpt>
      <trkpt lat="59.5928296" lon="17.5185115">
        <ele>26.0929</ele>
        <time>2011-01-19T20:08:17Z</time>
      </trkpt>
      <trkpt lat="59.5927116" lon="17.5182816">
        <ele>24.1703</ele>
        <time>2011-01-19T20:08:20Z</time>
      </trkpt>
      <trkpt lat="59.5926286" lon="17.5180278">
        <ele>23.209</ele>
        <time>2011-01-19T20:08:23Z</time>
      </trkpt>
      <trkpt lat="59.5926139" lon="17.5175905">
        <ele>24.651</ele>
        <time>2011-01-19T20:08:28Z</time>
      </trkpt>
      <trkpt lat="59.5926467" lon="17.5172586">
        <ele>30.4188</ele>
        <time>2011-01-19T20:08:32Z</time>
      </trkpt>
      <trkpt lat="59.5926529" lon="17.5171737">
        <ele>31.3801</ele>
        <time>2011-01-19T20:08:33Z</time>
      </trkpt>
      <trkpt lat="59.5926747" lon="17.5168664">
        <ele>33.3029</ele>
        <time>2011-01-19T20:08:36Z</time>
      </trkpt>
      <trkpt lat="59.5927651" lon="17.5164236">
        <ele>33.3029</ele>
        <time>2011-01-19T20:08:40Z</time>
      </trkpt>
      <trkpt lat="59.5930331" lon="17.5156719">
        <ele>31.8607</ele>
        <time>2011-01-19T20:08:47Z</time>
      </trkpt>
      <trkpt lat="59.5932797" lon="17.514971">
        <ele>31.3801</ele>
        <time>2011-01-19T20:08:53Z</time>
      </trkpt>
      <trkpt lat="59.5934309" lon="17.5147276">
        <ele>33.3029</ele>
        <time>2011-01-19T20:08:56Z</time>
      </trkpt>
      <trkpt lat="59.593635" lon="17.5145627">
        <ele>34.7449</ele>
        <time>2011-01-19T20:09:00Z</time>
      </trkpt>
      <trkpt lat="59.5937267" lon="17.5145215">
        <ele>35.7061</ele>
        <time>2011-01-19T20:09:02Z</time>
      </trkpt>
      <trkpt lat="59.593891" lon="17.5145529">
        <ele>38.1094</ele>
        <time>2011-01-19T20:09:06Z</time>
      </trkpt>
      <trkpt lat="59.5940677" lon="17.5147974">
        <ele>43.8773</ele>
        <time>2011-01-19T20:09:12Z</time>
      </trkpt>
      <trkpt lat="59.5941774" lon="17.5150104">
        <ele>45.3192</ele>
        <time>2011-01-19T20:09:18Z</time>
      </trkpt>
      <trkpt lat="59.594265" lon="17.5151706">
        <ele>47.2418</ele>
        <time>2011-01-19T20:09:23Z</time>
      </trkpt>
      <trkpt lat="59.5942841" lon="17.5152001">
        <ele>47.7225</ele>
        <time>2011-01-19T20:09:24Z</time>
      </trkpt>
      <trkpt lat="59.594421" lon="17.5153208">
        <ele>51.0872</ele>
        <time>2011-01-19T20:09:29Z</time>
      </trkpt>
      <trkpt lat="59.594539" lon="17.5153932">
        <ele>52.5292</ele>
        <time>2011-01-19T20:09:33Z</time>
      </trkpt>
      <trkpt lat="59.594675" lon="17.5154683">
        <ele>53.9712</ele>
        <time>2011-01-19T20:09:39Z</time>
      </trkpt>
      <trkpt lat="59.5948637" lon="17.5155772">
        <ele>54.9324</ele>
        <time>2011-01-19T20:09:45Z</time>
      </trkpt>
      <trkpt lat="59.5950042" lon="17.5156015">
        <ele>54.4518</ele>
        <time>2011-01-19T20:09:49Z</time>
      </trkpt>
      <trkpt lat="59.5951395" lon="17.5155896">
        <ele>54.9324</ele>
        <time>2011-01-19T20:09:53Z</time>
      </trkpt>
      <trkpt lat="59.5952829" lon="17.5155296">
        <ele>54.9324</ele>
        <time>2011-01-19T20:09:57Z</time>
      </trkpt>
      <trkpt lat="59.5953564" lon="17.5154503">
        <ele>56.3745</ele>
        <time>2011-01-19T20:10:00Z</time>
      </trkpt>
      <trkpt lat="59.5954611" lon="17.5153015">
        <ele>57.8165</ele>
        <time>2011-01-19T20:10:05Z</time>
      </trkpt>
      <trkpt lat="59.5955471" lon="17.5150202">
        <ele>58.2971</ele>
        <time>2011-01-19T20:10:10Z</time>
      </trkpt>
      <trkpt lat="59.5956297" lon="17.5146688">
        <ele>57.8165</ele>
        <time>2011-01-19T20:10:15Z</time>
      </trkpt>
      <trkpt lat="59.5956998" lon="17.5141884">
        <ele>54.4518</ele>
        <time>2011-01-19T20:10:21Z</time>
      </trkpt>
      <trkpt lat="59.5957238" lon="17.513841">
        <ele>50.126</ele>
        <time>2011-01-19T20:10:25Z</time>
      </trkpt>
      <trkpt lat="59.5957496" lon="17.5133308">
        <ele>47.2418</ele>
        <time>2011-01-19T20:10:29Z</time>
      </trkpt>
      <trkpt lat="59.5958993" lon="17.5128161">
        <ele>45.3192</ele>
        <time>2011-01-19T20:10:33Z</time>
      </trkpt>
      <trkpt lat="59.5960439" lon="17.5127147">
        <ele>45.3192</ele>
        <time>2011-01-19T20:10:35Z</time>
      </trkpt>
      <trkpt lat="59.5964363" lon="17.5125576">
        <ele>44.358</ele>
        <time>2011-01-19T20:10:41Z</time>
      </trkpt>
      <trkpt lat="59.5964924" lon="17.5125488">
        <ele>44.358</ele>
        <time>2011-01-19T20:10:42Z</time>
      </trkpt>
      <trkpt lat="59.5967152" lon="17.5124857">
        <ele>43.8773</ele>
        <time>2011-01-19T20:10:46Z</time>
      </trkpt>
      <trkpt lat="59.5969032" lon="17.5123944">
        <ele>44.358</ele>
        <time>2011-01-19T20:10:50Z</time>
      </trkpt>
      <trkpt lat="59.5971741" lon="17.5122901">
        <ele>46.2806</ele>
        <time>2011-01-19T20:10:56Z</time>
      </trkpt>
      <trkpt lat="59.5974071" lon="17.5122415">
        <ele>46.2806</ele>
        <time>2011-01-19T20:11:01Z</time>
      </trkpt>
      <trkpt lat="59.5975943" lon="17.5121484">
        <ele>46.7612</ele>
        <time>2011-01-19T20:11:05Z</time>
      </trkpt>
      <trkpt lat="59.5977356" lon="17.5120479">
        <ele>47.2418</ele>
        <time>2011-01-19T20:11:08Z</time>
      </trkpt>
      <trkpt lat="59.5979443" lon="17.5119214">
        <ele>46.7612</ele>
        <time>2011-01-19T20:11:12Z</time>
      </trkpt>
      <trkpt lat="59.5981205" lon="17.5116696">
        <ele>45.3192</ele>
        <time>2011-01-19T20:11:16Z</time>
      </trkpt>
      <trkpt lat="59.5982054" lon="17.511492">
        <ele>44.358</ele>
        <time>2011-01-19T20:11:18Z</time>
      </trkpt>
      <trkpt lat="59.5984242" lon="17.5111868">
        <ele>43.8773</ele>
        <time>2011-01-19T20:11:22Z</time>
      </trkpt>
      <trkpt lat="59.5986055" lon="17.5110026">
        <ele>41.474</ele>
        <time>2011-01-19T20:11:25Z</time>
      </trkpt>
      <trkpt lat="59.5988114" lon="17.5109197">
        <ele>39.5513</ele>
        <time>2011-01-19T20:11:29Z</time>
      </trkpt>
      <trkpt lat="59.5988959" lon="17.5108739">
        <ele>40.0321</ele>
        <time>2011-01-19T20:11:31Z</time>
      </trkpt>
      <trkpt lat="59.5991063" lon="17.5108057">
        <ele>40.5128</ele>
        <time>2011-01-19T20:11:35Z</time>
      </trkpt>
      <trkpt lat="59.5993299" lon="17.5108644">
        <ele>40.0321</ele>
        <time>2011-01-19T20:11:39Z</time>
      </trkpt>
      <trkpt lat="59.5994798" lon="17.511045">
        <ele>40.0321</ele>
        <time>2011-01-19T20:11:42Z</time>
      </trkpt>
      <trkpt lat="59.5995517" lon="17.5113487">
        <ele>39.5513</ele>
        <time>2011-01-19T20:11:46Z</time>
      </trkpt>
      <trkpt lat="59.5995616" lon="17.5116022">
        <ele>38.5901</ele>
        <time>2011-01-19T20:11:49Z</time>
      </trkpt>
      <trkpt lat="59.5995507" lon="17.5118273">
        <ele>37.1481</ele>
        <time>2011-01-19T20:11:52Z</time>
      </trkpt>
      <trkpt lat="59.5994785" lon="17.512167">
        <ele>34.2642</ele>
        <time>2011-01-19T20:11:57Z</time>
      </trkpt>
      <trkpt lat="59.5994238" lon="17.5122385">
        <ele>32.3416</ele>
        <time>2011-01-19T20:11:59Z</time>
      </trkpt>
      <trkpt lat="59.5992705" lon="17.5124074">
        <ele>28.4962</ele>
        <time>2011-01-19T20:12:04Z</time>
      </trkpt>
      <trkpt lat="59.5992183" lon="17.5125908">
        <ele>27.5349</ele>
        <time>2011-01-19T20:12:07Z</time>
      </trkpt>
      <trkpt lat="59.5992098" lon="17.5129555">
        <ele>29.9381</ele>
        <time>2011-01-19T20:12:12Z</time>
      </trkpt>
      <trkpt lat="59.5991978" lon="17.513303">
        <ele>28.9769</ele>
        <time>2011-01-19T20:12:16Z</time>
      </trkpt>
      <trkpt lat="59.5991089" lon="17.5135663">
        <ele>27.0543</ele>
        <time>2011-01-19T20:12:21Z</time>
      </trkpt>
      <trkpt lat="59.5990618" lon="17.5136453">
        <ele>27.5349</ele>
        <time>2011-01-19T20:12:23Z</time>
      </trkpt>
      <trkpt lat="59.5989178" lon="17.5138204">
        <ele>27.0543</ele>
        <time>2011-01-19T20:12:29Z</time>
      </trkpt>
      <trkpt lat="59.5988234" lon="17.5138433">
        <ele>26.5736</ele>
        <time>2011-01-19T20:12:33Z</time>
      </trkpt>
      <trkpt lat="59.5987034" lon="17.5138295">
        <ele>27.5349</ele>
        <time>2011-01-19T20:12:38Z</time>
      </trkpt>
      <trkpt lat="59.5985894" lon="17.5138236">
        <ele>28.4962</ele>
        <time>2011-01-19T20:12:42Z</time>
      </trkpt>
      <trkpt lat="59.5984583" lon="17.5138335">
        <ele>30.4188</ele>
        <time>2011-01-19T20:12:46Z</time>
      </trkpt>
      <trkpt lat="59.5984031" lon="17.5138015">
        <ele>30.4188</ele>
        <time>2011-01-19T20:12:48Z</time>
      </trkpt>
      <trkpt lat="59.5982542" lon="17.5138273">
        <ele>32.8223</ele>
        <time>2011-01-19T20:12:53Z</time>
      </trkpt>
      <trkpt lat="59.5981042" lon="17.5139089">
        <ele>35.7061</ele>
        <time>2011-01-19T20:12:59Z</time>
      </trkpt>
      <trkpt lat="59.5979497" lon="17.5140252">
        <ele>36.1868</ele>
        <time>2011-01-19T20:13:04Z</time>
      </trkpt>
      <trkpt lat="59.5978558" lon="17.5142363">
        <ele>38.5901</ele>
        <time>2011-01-19T20:13:08Z</time>
      </trkpt>
      <trkpt lat="59.5977444" lon="17.5143893">
        <ele>39.5513</ele>
        <time>2011-01-19T20:13:12Z</time>
      </trkpt>
      <trkpt lat="59.5976244" lon="17.5145228">
        <ele>40.0321</ele>
        <time>2011-01-19T20:13:16Z</time>
      </trkpt>
      <trkpt lat="59.5974957" lon="17.5146235">
        <ele>39.5513</ele>
        <time>2011-01-19T20:13:20Z</time>
      </trkpt>
      <trkpt lat="59.5973331" lon="17.5146898">
        <ele>40.0321</ele>
        <time>2011-01-19T20:13:25Z</time>
      </trkpt>
      <trkpt lat="59.5971915" lon="17.5147675">
        <ele>39.0707</ele>
        <time>2011-01-19T20:13:29Z</time>
      </trkpt>
      <trkpt lat="59.5970605" lon="17.5148349">
        <ele>38.1094</ele>
        <time>2011-01-19T20:13:33Z</time>
      </trkpt>
      <trkpt lat="59.5969369" lon="17.514913">
        <ele>38.1094</ele>
        <time>2011-01-19T20:13:37Z</time>
      </trkpt>
      <trkpt lat="59.5968341" lon="17.5150291">
        <ele>36.6675</ele>
        <time>2011-01-19T20:13:41Z</time>
      </trkpt>
      <trkpt lat="59.596722" lon="17.5150985">
        <ele>37.1481</ele>
        <time>2011-01-19T20:13:45Z</time>
      </trkpt>
      <trkpt lat="59.5966364" lon="17.515192">
        <ele>38.1094</ele>
        <time>2011-01-19T20:13:49Z</time>
      </trkpt>
      <trkpt lat="59.5964774" lon="17.515373">
        <ele>39.5513</ele>
        <time>2011-01-19T20:13:55Z</time>
      </trkpt>
      <trkpt lat="59.5963114" lon="17.5155235">
        <ele>40.9934</ele>
        <time>2011-01-19T20:14:01Z</time>
      </trkpt>
      <trkpt lat="59.5962037" lon="17.5156506">
        <ele>41.9547</ele>
        <time>2011-01-19T20:14:05Z</time>
      </trkpt>
      <trkpt lat="59.5961064" lon="17.5157551">
        <ele>42.4354</ele>
        <time>2011-01-19T20:14:09Z</time>
      </trkpt>
      <trkpt lat="59.595951" lon="17.5158989">
        <ele>42.916</ele>
        <time>2011-01-19T20:14:14Z</time>
      </trkpt>
      <trkpt lat="59.5958392" lon="17.5161433">
        <ele>44.8386</ele>
        <time>2011-01-19T20:14:20Z</time>
      </trkpt>
      <trkpt lat="59.5957578" lon="17.5164635">
        <ele>49.1646</ele>
        <time>2011-01-19T20:14:25Z</time>
      </trkpt>
      <trkpt lat="59.5957371" lon="17.5167632">
        <ele>50.126</ele>
        <time>2011-01-19T20:14:29Z</time>
      </trkpt>
      <trkpt lat="59.5956782" lon="17.5170843">
        <ele>50.6066</ele>
        <time>2011-01-19T20:14:33Z</time>
      </trkpt>
      <trkpt lat="59.595489" lon="17.5173881">
        <ele>47.7225</ele>
        <time>2011-01-19T20:14:37Z</time>
      </trkpt>
      <trkpt lat="59.5952633" lon="17.5175174">
        <ele>45.3192</ele>
        <time>2011-01-19T20:14:40Z</time>
      </trkpt>
      <trkpt lat="59.5950455" lon="17.517602">
        <ele>44.8386</ele>
        <time>2011-01-19T20:14:43Z</time>
      </trkpt>
      <trkpt lat="59.5948809" lon="17.5176295">
        <ele>43.8773</ele>
        <time>2011-01-19T20:14:47Z</time>
      </trkpt>
      <trkpt lat="59.5948729" lon="17.5176236">
        <ele>43.3966</ele>
        <time>2011-01-19T20:14:48Z</time>
      </trkpt>
      <trkpt lat="59.5948597" lon="17.517631">
        <ele>43.8773</ele>
        <time>2011-01-19T20:14:51Z</time>
      </trkpt>
      <trkpt lat="59.5947494" lon="17.5176919">
        <ele>44.358</ele>
        <time>2011-01-19T20:14:56Z</time>
      </trkpt>
      <trkpt lat="59.5945864" lon="17.5177517">
        <ele>43.8773</ele>
        <time>2011-01-19T20:15:00Z</time>
      </trkpt>
      <trkpt lat="59.5944287" lon="17.5178005">
        <ele>43.3966</ele>
        <time>2011-01-19T20:15:04Z</time>
      </trkpt>
      <trkpt lat="59.5943169" lon="17.517851">
        <ele>41.9547</ele>
        <time>2011-01-19T20:15:07Z</time>
      </trkpt>
      <trkpt lat="59.59419" lon="17.5179647">
        <ele>40.5128</ele>
        <time>2011-01-19T20:15:10Z</time>
      </trkpt>
      <trkpt lat="59.5940608" lon="17.5180589">
        <ele>41.9547</ele>
        <time>2011-01-19T20:15:13Z</time>
      </trkpt>
      <trkpt lat="59.593882" lon="17.5182022">
        <ele>40.9934</ele>
        <time>2011-01-19T20:15:18Z</time>
      </trkpt>
      <trkpt lat="59.5938125" lon="17.5182241">
        <ele>40.0321</ele>
        <time>2011-01-19T20:15:20Z</time>
      </trkpt>
      <trkpt lat="59.5937427" lon="17.5182602">
        <ele>40.0321</ele>
        <time>2011-01-19T20:15:22Z</time>
      </trkpt>
    </trkseg>
  </trk>
</gpx>